createdAt,value
2019-06-20T00:02:03.041Z,100521.86
2019-06-20T00:04:32.931Z,100508.13
2019-06-20T00:07:02.673Z,100517.05
2019-06-20T00:09:32.420Z,100507.50
2019-06-20T00:12:02.252Z,100508.72
2019-06-20T00:14:31.998Z,100509.75
2019-06-20T00:17:01.782Z,100508.66
2019-06-20T00:19:31.547Z,100489.88
2019-06-20T00:22:01.273Z,100479.03
2019-06-20T00:24:31.074Z,100478.50
2019-06-20T00:27:00.825Z,100475.25
2019-06-20T00:29:30.663Z,100476.66
2019-06-20T00:32:00.426Z,100481.30
2019-06-20T00:34:30.171Z,100473.71
2019-06-20T00:37:00.030Z,100477.16
2019-06-20T00:39:29.826Z,100464.00
2019-06-20T00:41:59.627Z,100472.72
2019-06-20T00:44:29.625Z,100466.72
2019-06-20T00:46:59.512Z,100459.51
2019-06-20T00:49:29.269Z,100468.77
2019-06-20T00:51:59.113Z,100469.12
2019-06-20T00:54:29.015Z,100479.23
2019-06-20T00:56:58.756Z,100478.36
2019-06-20T00:59:28.603Z,100484.17
2019-06-20T01:01:58.414Z,100477.78
2019-06-20T01:04:29.909Z,100472.11
2019-06-20T01:06:59.652Z,100470.98
2019-06-20T01:09:29.448Z,100477.09
2019-06-20T01:11:59.361Z,100473.15
2019-06-20T01:14:30.640Z,100475.69
2019-06-20T01:17:00.417Z,100476.83
2019-06-20T01:19:30.168Z,100483.03
2019-06-20T01:21:59.909Z,100488.78
2019-06-20T01:24:29.835Z,100502.27
2019-06-20T01:26:59.667Z,100515.77
2019-06-20T01:29:29.447Z,100518.62
2019-06-20T01:31:59.301Z,100515.00
2019-06-20T01:34:30.570Z,100523.30
2019-06-20T01:37:00.319Z,100528.02
2019-06-20T01:39:30.086Z,100529.04
2019-06-20T01:41:59.968Z,100519.17
2019-06-20T01:44:31.264Z,100519.23
2019-06-20T01:47:01.076Z,100516.64
2019-06-20T01:49:30.942Z,100513.56
2019-06-20T01:52:00.797Z,100516.16
2019-06-20T01:54:31.819Z,100518.13
2019-06-20T01:57:01.589Z,100521.02
2019-06-20T01:59:31.355Z,100523.66
2019-06-20T02:02:01.323Z,100521.16
2019-06-20T02:04:31.246Z,100509.24
2019-06-20T02:07:01.068Z,100517.09
2019-06-20T02:09:30.808Z,100513.15
2019-06-20T02:12:00.732Z,100512.80
2019-06-20T02:14:30.789Z,100512.55
2019-06-20T02:17:00.575Z,100513.78
2019-06-20T02:19:30.431Z,100513.89
2019-06-20T02:22:00.372Z,100508.34
2019-06-20T02:24:30.160Z,100502.19
2019-06-20T02:26:59.980Z,100500.32
2019-06-20T02:29:29.917Z,100500.64
2019-06-20T02:31:59.863Z,100494.55
2019-06-20T02:34:30.036Z,100509.42
2019-06-20T02:36:59.799Z,100519.00
2019-06-20T02:39:29.777Z,100511.55
2019-06-20T02:41:59.644Z,100514.95
2019-06-20T02:44:30.837Z,100521.88
2019-06-20T02:47:00.899Z,100522.86
2019-06-20T02:49:30.781Z,100518.93
2019-06-20T02:52:00.680Z,100525.52
2019-06-20T02:54:31.633Z,100528.26
2019-06-20T02:57:01.420Z,100516.97
2019-06-20T02:59:31.359Z,100517.20
2019-06-20T03:02:01.089Z,100509.33
2019-06-20T03:04:30.922Z,100510.82
2019-06-20T03:07:00.681Z,100508.30
2019-06-20T03:09:30.525Z,100513.16
2019-06-20T03:12:00.387Z,100506.41
2019-06-20T03:14:44.565Z,100511.33
2019-06-20T03:17:01.773Z,100506.55
2019-06-20T03:19:31.687Z,100520.30
2019-06-20T03:22:01.520Z,100516.03
2019-06-20T03:24:31.294Z,100515.84
2019-06-20T03:27:01.139Z,100511.11
2019-06-20T03:29:31.046Z,100514.37
2019-06-20T03:32:00.799Z,100505.74
2019-06-20T03:34:30.612Z,100516.28
2019-06-20T03:37:00.502Z,100515.69
2019-06-20T03:39:30.411Z,100513.40
2019-06-20T03:42:00.300Z,100505.48
2019-06-20T03:44:32.887Z,100502.03
2019-06-20T03:47:02.839Z,100505.67
2019-06-20T03:49:32.775Z,100510.14
2019-06-20T03:52:02.715Z,100510.17
2019-06-20T03:54:32.486Z,100506.23
2019-06-20T03:57:02.240Z,100509.94
2019-06-20T03:59:32.076Z,100504.92
2019-06-20T04:02:02.084Z,100503.03
2019-06-20T04:04:31.975Z,100516.17
2019-06-20T04:07:01.846Z,100515.72
2019-06-20T04:09:31.681Z,100518.14
2019-06-20T04:12:01.474Z,100515.72
2019-06-20T04:14:31.216Z,100515.47
2019-06-20T04:17:00.995Z,100523.83
2019-06-20T04:19:30.920Z,100512.61
2019-06-20T04:22:00.878Z,100515.22
2019-06-20T04:24:30.702Z,100526.66
2019-06-20T04:27:00.994Z,100516.77
2019-06-20T04:29:30.895Z,100512.13
2019-06-20T04:32:00.750Z,100511.03
2019-06-20T04:34:30.485Z,100519.32
2019-06-20T04:37:00.374Z,100519.86
2019-06-20T04:39:30.216Z,100530.97
2019-06-20T04:42:00.081Z,100523.48
2019-06-20T04:44:29.888Z,100535.58
2019-06-20T04:47:01.344Z,100549.13
2019-06-20T04:49:31.117Z,100547.00
2019-06-20T04:52:00.912Z,100551.06
2019-06-20T04:54:30.806Z,100553.21
2019-06-20T04:57:00.582Z,100551.91
2019-06-20T04:59:30.537Z,100549.66
2019-06-20T05:02:00.452Z,100555.46
2019-06-20T05:04:30.877Z,100555.40
2019-06-20T05:07:06.404Z,100558.23
2019-06-20T05:09:36.264Z,100565.35
2019-06-20T05:12:06.113Z,100567.04
2019-06-20T05:14:35.922Z,100578.37
2019-06-20T05:17:07.262Z,100573.06
2019-06-20T05:19:37.280Z,100572.17
2019-06-20T05:22:07.183Z,100584.35
2019-06-20T05:24:37.013Z,100582.55
2019-06-20T05:27:06.931Z,100574.36
2019-06-20T05:29:37.032Z,100575.36
2019-06-20T05:32:06.791Z,100573.91
2019-06-20T05:34:36.711Z,100580.63
2019-06-20T05:37:06.550Z,100579.92
2019-06-20T05:39:36.455Z,100583.02
2019-06-20T05:42:06.582Z,100578.48
2019-06-20T05:44:36.557Z,100577.61
2019-06-20T05:47:12.386Z,100580.72
2019-06-20T05:49:37.901Z,100573.48
2019-06-20T05:52:07.659Z,100572.61
2019-06-20T05:54:38.481Z,100573.16
2019-06-20T05:57:08.339Z,100575.91
2019-06-20T05:59:38.162Z,100574.33
2019-06-20T06:02:08.098Z,100575.72
2019-06-20T06:04:38.040Z,100583.66
2019-06-20T06:07:07.943Z,100575.22
2019-06-20T06:09:37.726Z,100582.23
2019-06-20T06:12:07.667Z,100582.55
2019-06-20T06:14:37.400Z,100590.95
2019-06-20T06:17:07.143Z,100590.84
2019-06-20T06:19:37.083Z,100595.81
2019-06-20T06:22:06.825Z,100605.39
2019-06-20T06:24:36.745Z,100612.20
2019-06-20T06:27:07.781Z,100613.94
2019-06-20T06:29:37.610Z,100617.47
2019-06-20T06:32:07.430Z,100625.01
2019-06-20T06:34:37.363Z,100629.98
2019-06-20T06:37:07.155Z,100632.22
2019-06-20T06:39:37.103Z,100621.56
2019-06-20T06:42:07.040Z,100629.47
2019-06-20T06:44:36.825Z,100628.55
2019-06-20T06:47:06.798Z,100626.19
2019-06-20T06:49:36.701Z,100623.04
2019-06-20T06:52:06.600Z,100628.45
2019-06-20T06:54:36.454Z,100630.67
2019-06-20T06:57:06.359Z,100632.73
2019-06-20T06:59:36.198Z,100635.92
2019-06-20T07:02:06.115Z,100637.52
2019-06-20T07:04:37.561Z,100637.23
2019-06-20T07:07:07.566Z,100636.22
2019-06-20T07:09:37.435Z,100628.20
2019-06-20T07:12:07.328Z,100628.58
2019-06-20T07:14:37.157Z,100628.58
2019-06-20T07:17:07.003Z,100634.28
2019-06-20T07:19:36.824Z,100631.67
2019-06-20T07:22:06.674Z,100641.16
2019-06-20T07:24:36.424Z,100644.61
2019-06-20T07:27:06.348Z,100650.41
2019-06-20T07:29:37.177Z,100655.05
2019-06-20T07:32:06.952Z,100650.91
2019-06-20T07:34:36.742Z,100656.91
2019-06-20T07:37:06.692Z,100656.75
2019-06-20T07:39:36.638Z,100657.13
2019-06-20T07:42:06.455Z,100667.44
2019-06-20T07:44:36.400Z,100659.22
2019-06-20T07:47:16.937Z,100655.92
2019-06-20T07:49:38.410Z,100655.28
2019-06-20T07:52:08.223Z,100651.64
2019-06-20T07:54:38.158Z,100652.39
2019-06-20T07:57:07.901Z,100654.59
2019-06-20T07:59:37.744Z,100660.09
2019-06-20T08:02:07.526Z,100665.29
2019-06-20T08:04:37.418Z,100657.37
2019-06-20T08:07:07.207Z,100665.65
2019-06-20T08:09:44.800Z,100673.67
2019-06-20T08:12:08.599Z,100673.67
2019-06-20T08:14:38.454Z,100676.07
2019-06-20T08:17:08.161Z,100680.61
2019-06-20T08:19:38.020Z,100682.31
2019-06-20T08:22:07.929Z,100682.31
2019-06-20T08:24:37.782Z,100689.59
2019-06-20T08:27:07.713Z,100692.83
2019-06-20T08:29:37.461Z,100686.62
2019-06-20T08:32:07.404Z,100693.33
2019-06-20T08:34:37.184Z,100694.02
2019-06-20T08:37:06.982Z,100690.22
2019-06-20T08:39:36.827Z,100697.34
2019-06-20T08:42:06.638Z,100690.09
2019-06-20T08:44:36.403Z,100699.03
2019-06-20T08:47:06.226Z,100696.61
2019-06-20T08:49:36.008Z,100690.56
2019-06-20T08:52:05.914Z,100702.05
2019-06-20T08:54:35.685Z,100694.87
2019-06-20T08:57:05.939Z,100708.09
2019-06-20T08:59:35.867Z,100707.91
2019-06-20T09:04:35.495Z,100714.51
2019-06-20T09:07:05.422Z,100724.15
2019-06-20T09:09:35.298Z,100727.41
2019-06-20T09:12:05.302Z,100731.36
2019-06-20T09:14:35.061Z,100734.81
2019-06-20T09:17:04.981Z,100737.93
2019-06-20T09:19:34.772Z,100734.50
2019-06-20T09:22:05.065Z,100734.55
2019-06-20T09:24:34.862Z,100733.02
2019-06-20T09:27:04.772Z,100739.72
2019-06-20T09:29:41.599Z,100737.64
2019-06-20T09:32:07.500Z,100741.45
2019-06-20T09:34:37.384Z,100749.02
2019-06-20T09:37:07.273Z,100747.30
2019-06-20T09:39:37.196Z,100746.91
2019-06-20T09:42:07.088Z,100743.28
2019-06-20T09:44:36.850Z,100742.59
2019-06-20T09:47:06.697Z,100754.48
2019-06-20T09:49:36.681Z,100761.69
2019-06-20T09:52:06.466Z,100772.85
2019-06-20T09:54:36.234Z,100776.83
2019-06-20T09:57:06.176Z,100770.77
2019-06-20T09:59:36.102Z,100791.33
2019-06-20T10:02:05.930Z,100789.67
2019-06-20T10:04:35.667Z,100787.97
2019-06-20T10:07:05.598Z,100787.69
2019-06-20T10:09:35.383Z,100780.38
2019-06-20T10:12:05.508Z,100786.42
2019-06-20T10:14:35.417Z,100787.28
2019-06-20T10:17:05.270Z,100795.20
2019-06-20T10:19:35.243Z,100801.73
2019-06-20T10:22:05.275Z,100794.35
2019-06-20T10:24:35.177Z,100798.30
2019-06-20T10:27:05.221Z,100796.87
2019-06-20T10:29:35.129Z,100793.81
2019-06-20T10:32:05.078Z,100801.73
2019-06-20T10:34:34.836Z,100808.04
2019-06-20T10:37:04.752Z,100817.02
2019-06-20T10:39:34.710Z,100825.78
2019-06-20T10:42:04.724Z,100820.94
2019-06-20T10:44:34.636Z,100830.52
2019-06-20T10:47:04.624Z,100830.03
2019-06-20T10:49:34.542Z,100828.80
2019-06-20T10:52:04.638Z,100835.56
2019-06-20T10:54:38.050Z,100828.59
2019-06-20T10:57:07.981Z,100837.48
2019-06-20T10:59:37.785Z,100837.20
2019-06-20T11:02:08.082Z,100836.61
2019-06-20T11:04:40.542Z,100842.81
2019-06-20T11:07:09.589Z,100840.89
2019-06-20T11:09:40.154Z,100850.11
2019-06-20T11:12:11.085Z,100847.05
2019-06-20T11:14:42.134Z,100847.47
2019-06-20T11:17:12.175Z,100850.84
2019-06-20T11:19:41.917Z,100861.44
2019-06-20T11:22:11.735Z,100863.44
2019-06-20T11:24:41.493Z,100859.89
2019-06-20T11:27:11.868Z,100858.89
2019-06-20T11:29:41.689Z,100869.12
2019-06-20T11:32:11.457Z,100868.60
2019-06-20T11:34:42.578Z,100870.33
2019-06-20T11:37:12.477Z,100875.48
2019-06-20T11:39:43.242Z,100877.00
2019-06-20T11:42:13.146Z,100877.05
2019-06-20T11:44:43.121Z,100879.44
2019-06-20T11:47:12.954Z,100878.82
2019-06-20T11:49:42.782Z,100865.23
2019-06-20T11:52:12.718Z,100869.17
2019-06-20T11:54:42.563Z,100872.62
2019-06-20T11:57:12.364Z,100879.64
2019-06-20T11:59:42.090Z,100878.28
2019-06-20T12:02:11.871Z,100876.53
2019-06-20T12:04:42.945Z,100880.31
2019-06-20T12:07:12.880Z,100879.62
2019-06-20T12:09:44.202Z,100882.13
2019-06-20T12:12:14.173Z,100876.77
2019-06-20T12:14:44.300Z,100886.12
2019-06-20T12:17:14.172Z,100887.30
2019-06-20T12:19:44.611Z,100884.91
2019-06-20T12:22:14.503Z,100880.75
2019-06-20T12:24:44.575Z,100894.69
2019-06-20T12:27:14.371Z,100889.50
2019-06-20T12:29:44.423Z,100891.44
2019-06-20T12:32:14.108Z,100891.44
2019-06-20T12:34:44.566Z,100892.98
2019-06-20T12:37:14.441Z,100889.70
2019-06-20T12:39:44.445Z,100889.70
2019-06-20T12:42:14.203Z,100885.57
2019-06-20T12:44:44.231Z,100890.73
2019-06-20T12:47:13.970Z,100890.73
2019-06-20T12:49:43.814Z,100895.86
2019-06-20T12:52:13.667Z,100889.98
2019-06-20T12:54:44.868Z,100889.98
2019-06-20T12:57:15.647Z,100887.75
2019-06-20T12:59:46.312Z,100899.12
2019-06-20T13:02:16.206Z,100892.02
2019-06-20T13:04:46.101Z,100897.87
2019-06-20T13:07:15.947Z,100908.93
2019-06-20T13:09:46.332Z,100910.06
2019-06-20T13:12:16.275Z,100910.06
2019-06-20T13:14:46.073Z,100900.69
2019-06-20T13:17:15.927Z,100900.69
2019-06-20T13:19:46.522Z,100896.11
2019-06-20T13:22:16.415Z,100895.60
2019-06-20T13:24:47.198Z,100905.34
2019-06-20T13:27:17.014Z,100899.09
2019-06-20T13:29:47.280Z,100905.05
2019-06-20T13:32:17.211Z,100907.75
2019-06-20T13:34:47.002Z,100908.50
2019-06-20T13:37:16.773Z,100905.63
2019-06-20T13:39:47.417Z,100908.69
2019-06-20T13:42:17.224Z,100904.97
2019-06-20T13:44:47.108Z,100907.91
2019-06-20T13:47:16.877Z,100907.62
2019-06-20T13:49:47.698Z,100917.23
2019-06-20T13:52:17.682Z,100911.45
2019-06-20T13:54:49.828Z,100903.46
2019-06-20T13:57:19.766Z,100908.92
2019-06-20T13:59:52.755Z,100914.48
2019-06-20T14:02:20.995Z,100915.59
2019-06-20T14:04:50.818Z,100922.36
2019-06-20T14:07:20.579Z,100929.54
2019-06-20T14:09:51.162Z,100922.30
2019-06-20T14:12:20.998Z,100924.75
2019-06-20T14:14:52.133Z,100924.09
2019-06-20T14:17:22.064Z,100924.09
2019-06-20T14:19:51.949Z,100919.50
2019-06-20T14:22:21.695Z,100915.98
2019-06-20T14:24:51.501Z,100915.42
2019-06-20T14:27:21.380Z,100907.77
2019-06-20T14:29:51.182Z,100922.27
2019-06-20T14:32:22.423Z,100919.14
2019-06-20T14:34:52.329Z,100920.45
2019-06-20T14:37:22.040Z,100911.41
2019-06-20T14:39:52.661Z,100921.09
2019-06-20T14:42:22.587Z,100916.08
2019-06-20T14:44:52.515Z,100917.31
2019-06-20T14:47:22.392Z,100927.08
2019-06-20T14:49:52.366Z,100922.06
2019-06-20T14:52:22.157Z,100923.27
2019-06-20T14:54:51.899Z,100925.98
2019-06-20T14:57:21.746Z,100930.45
2019-06-20T14:59:52.654Z,100916.36
2019-06-20T15:02:37.636Z,100923.75
2019-06-20T15:04:54.457Z,100923.47
2019-06-20T15:07:24.185Z,100926.57
2019-06-20T15:09:55.278Z,100922.23
2019-06-20T15:12:25.180Z,100927.75
2019-06-20T15:14:55.531Z,100928.94
2019-06-20T15:17:25.412Z,100927.27
2019-06-20T15:19:56.157Z,100923.59
2019-06-20T15:22:26.035Z,100929.84
2019-06-20T15:24:57.193Z,100912.76
2019-06-20T15:27:26.982Z,100909.73
2019-06-20T15:29:56.783Z,100902.78
2019-06-20T15:32:26.583Z,100909.20
2019-06-20T15:34:57.254Z,100912.21
2019-06-20T15:37:27.067Z,100914.75
2019-06-20T15:39:57.973Z,100913.41
2019-06-20T15:42:28.106Z,100912.55
2019-06-20T15:44:58.734Z,100936.62
2019-06-20T15:47:28.957Z,100932.79
2019-06-20T15:49:58.737Z,100931.72
2019-06-20T15:52:28.629Z,100929.35
2019-06-20T15:54:59.336Z,100930.55
2019-06-20T15:57:29.061Z,100929.38
2019-06-20T15:59:58.797Z,100932.17
2019-06-20T16:02:28.721Z,100925.27
2019-06-20T16:04:58.518Z,100924.58
2019-06-20T16:07:28.296Z,100926.11
2019-06-20T16:09:58.074Z,100928.13
2019-06-20T16:12:27.836Z,100936.22
2019-06-20T16:14:57.654Z,100936.43
2019-06-20T16:17:27.565Z,100937.30
2019-06-20T16:19:57.336Z,100946.98
2019-06-20T16:22:27.169Z,100945.95
2019-06-20T16:24:56.989Z,100938.91
2019-06-20T16:27:26.807Z,100943.56
2019-06-20T16:29:56.602Z,100943.54
2019-06-20T16:32:26.367Z,100944.77
2019-06-20T16:34:56.102Z,100952.37
2019-06-20T16:37:25.835Z,100952.72
2019-06-20T16:39:55.694Z,100952.37
2019-06-20T16:42:25.517Z,100951.15
2019-06-20T16:44:55.326Z,100953.91
2019-06-20T16:47:25.076Z,100955.14
2019-06-20T16:49:54.774Z,100955.48
2019-06-20T16:52:24.614Z,100953.19
2019-06-20T16:54:55.463Z,100957.67
2019-06-20T16:57:25.231Z,100953.67
2019-06-20T16:59:54.945Z,100939.95
2019-06-20T17:02:24.818Z,100939.95
2019-06-20T17:04:56.673Z,100949.97
2019-06-20T17:07:26.026Z,100943.41
2019-06-20T17:09:55.878Z,100959.78
2019-06-20T17:12:25.595Z,100957.66
2019-06-20T17:14:55.375Z,100962.50
2019-06-20T17:17:29.882Z,100965.94
2019-06-20T17:19:59.847Z,100971.76
2019-06-20T17:22:30.161Z,100972.83
2019-06-20T17:25:00.117Z,100970.59
2019-06-20T17:27:30.005Z,100967.67
2019-06-20T17:29:59.859Z,100965.61
2019-06-20T17:32:29.568Z,100970.42
2019-06-20T17:34:59.457Z,100963.67
2019-06-20T17:37:29.401Z,100965.22
2019-06-20T17:39:59.152Z,100969.46
2019-06-20T17:42:29.030Z,100979.08
2019-06-20T17:44:58.933Z,100977.13
2019-06-20T17:47:28.772Z,100982.66
2019-06-20T17:49:58.723Z,100983.33
2019-06-20T17:52:28.452Z,100977.73
2019-06-20T17:54:58.902Z,100977.73
2019-06-20T17:57:28.642Z,100983.23
2019-06-20T17:59:58.563Z,100983.23
2019-06-20T18:02:28.354Z,100988.88
2019-06-20T18:04:58.244Z,100992.80
2019-06-20T18:07:28.039Z,100985.99
2019-06-20T18:09:58.420Z,100988.02
2019-06-20T18:12:28.468Z,100992.83
2019-06-20T18:14:58.669Z,100979.36
2019-06-20T18:17:28.504Z,100985.39
2019-06-20T18:19:58.290Z,100986.92
2019-06-20T18:22:28.123Z,100986.97
2019-06-20T18:24:57.887Z,100988.80
2019-06-20T18:27:27.788Z,100994.77
2019-06-20T18:29:57.629Z,101000.14
2019-06-20T18:32:27.423Z,101004.53
2019-06-20T18:35:02.017Z,101009.34
2019-06-20T18:37:31.694Z,101008.08
2019-06-20T18:40:00.737Z,101015.28
2019-06-20T18:42:30.665Z,101012.25
2019-06-20T18:45:00.617Z,101013.37
2019-06-20T18:47:30.745Z,101028.80
2019-06-20T18:50:02.255Z,101027.77
2019-06-20T18:52:32.204Z,101039.31
2019-06-20T18:55:03.100Z,101038.60
2019-06-20T18:57:33.117Z,101046.48
2019-06-20T19:00:04.499Z,101051.14
2019-06-20T19:02:37.509Z,101055.27
2019-06-20T19:05:08.978Z,101060.52
2019-06-20T19:07:44.888Z,101063.22
2019-06-20T19:10:17.858Z,101063.70
2019-06-20T19:12:47.826Z,101069.41
2019-06-20T19:15:19.306Z,101069.49
2019-06-20T19:17:49.247Z,101074.63
2019-06-20T19:20:19.410Z,101072.55
2019-06-20T19:22:49.260Z,101068.67
2019-06-20T19:25:19.120Z,101082.28
2019-06-20T19:27:49.003Z,101078.48
2019-06-20T19:30:19.178Z,101082.47
2019-06-20T19:32:48.965Z,101084.14
2019-06-20T19:35:19.205Z,101093.77
2019-06-20T19:37:49.065Z,101092.75
2019-06-20T19:40:18.981Z,101093.66
2019-06-20T19:42:48.729Z,101090.85
2019-06-20T19:45:18.919Z,101098.48
2019-06-20T19:47:48.672Z,101105.01
2019-06-20T19:50:18.561Z,101111.76
2019-06-20T19:52:48.447Z,101113.17
2019-06-20T19:55:20.943Z,101110.48
2019-06-20T19:57:50.873Z,101114.25
2019-06-20T20:00:21.173Z,101111.86
2019-06-20T20:02:50.967Z,101106.95
2019-06-20T20:05:20.838Z,101112.97
2019-06-20T20:07:50.729Z,101124.01
2019-06-20T20:10:46.256Z,101117.76
2019-06-20T20:13:16.566Z,101120.59
2019-06-20T20:15:46.979Z,101126.50
2019-06-20T20:18:16.885Z,101125.64
2019-06-20T20:20:47.929Z,101132.43
2019-06-20T20:23:18.030Z,101132.13
2019-06-20T20:25:48.262Z,101133.05
2019-06-20T20:28:18.104Z,101130.08
2019-06-20T20:30:48.057Z,101138.03
2019-06-20T20:33:17.925Z,101137.14
2019-06-20T20:35:47.762Z,101147.31
2019-06-20T20:38:17.642Z,101148.69
2019-06-20T20:40:50.959Z,101149.85
2019-06-20T20:43:23.936Z,101157.88
2019-06-20T20:45:53.703Z,101160.34
2019-06-20T20:48:25.020Z,101161.06
2019-06-20T20:50:54.877Z,101169.86
2019-06-20T20:53:24.639Z,101170.22
2019-06-20T20:55:55.474Z,101171.46
2019-06-20T20:58:25.235Z,101167.59
2019-06-20T21:01:10.137Z,101170.17
2019-06-20T21:03:39.900Z,101180.21
2019-06-20T21:06:09.858Z,101188.03
2019-06-20T21:08:39.735Z,101189.41
2019-06-20T21:11:09.559Z,101187.59
2019-06-20T21:13:39.434Z,101192.59
2019-06-20T21:16:09.400Z,101190.69
2019-06-20T21:18:39.243Z,101193.59
2019-06-20T21:21:09.031Z,101186.66
2019-06-20T21:23:38.814Z,101192.15
2019-06-20T21:26:08.655Z,101197.48
2019-06-20T21:28:38.547Z,101200.95
2019-06-20T21:31:08.489Z,101207.03
2019-06-20T21:33:38.261Z,101211.52
2019-06-20T21:36:09.228Z,101216.97
2019-06-20T21:38:39.259Z,101211.84
2019-06-20T21:41:09.039Z,101214.10
2019-06-20T21:43:40.250Z,101211.44
2019-06-20T21:46:10.006Z,101216.56
2019-06-20T21:48:40.118Z,101217.86
2019-06-20T21:51:10.091Z,101222.17
2019-06-20T21:53:45.819Z,101227.82
2019-06-20T21:56:15.648Z,101223.11
2019-06-20T21:58:45.434Z,101217.33
2019-06-20T22:01:16.797Z,101222.53
2019-06-20T22:03:46.880Z,101226.78
2019-06-20T22:06:23.887Z,101227.50
2019-06-20T22:08:48.257Z,101227.74
2019-06-20T22:11:18.145Z,101227.42
2019-06-20T22:13:47.881Z,101228.75
2019-06-20T22:16:17.725Z,101230.56
2019-06-20T22:18:47.502Z,101229.95
2019-06-20T22:21:20.099Z,101228.22
2019-06-20T22:23:50.562Z,101233.91
2019-06-20T22:26:21.433Z,101241.40
2019-06-20T22:28:51.640Z,101238.48
2019-06-20T22:31:21.752Z,101238.39
2019-06-20T22:33:51.752Z,101237.45
2019-06-20T22:36:21.614Z,101245.16
2019-06-20T22:38:51.746Z,101242.94
2019-06-20T22:41:21.550Z,101247.99
2019-06-20T22:43:52.672Z,101249.88
2019-06-20T22:46:22.603Z,101260.33
2019-06-20T22:48:52.354Z,101258.75
2019-06-20T22:51:22.194Z,101255.85
2019-06-20T22:53:51.946Z,101251.04
2019-06-20T22:56:21.850Z,101250.67
2019-06-20T22:58:51.630Z,101255.67
2019-06-20T23:01:21.471Z,101256.34
2019-06-20T23:03:51.226Z,101252.59
2019-06-20T23:06:21.156Z,101252.73
2019-06-20T23:08:50.895Z,101255.98
2019-06-20T23:11:20.721Z,101254.27
2019-06-20T23:13:50.478Z,101259.75
2019-06-20T23:16:20.223Z,101257.57
2019-06-20T23:18:49.997Z,101260.46
2019-06-20T23:21:19.752Z,101260.63
2019-06-20T23:23:49.697Z,101263.86
2019-06-20T23:26:19.503Z,101264.02
2019-06-20T23:28:50.896Z,101263.53
2019-06-20T23:31:20.653Z,101258.59
2019-06-20T23:33:50.424Z,101266.08
2019-06-20T23:36:20.195Z,101273.66
2019-06-20T23:38:50.064Z,101275.66
2019-06-20T23:41:19.789Z,101272.66
2019-06-20T23:43:49.558Z,101271.83
2019-06-20T23:46:19.379Z,101271.34
2019-06-20T23:48:49.174Z,101275.45
2019-06-20T23:54:43.304Z,101277.56
2019-06-20T23:57:13.128Z,101278.81
2019-06-20T23:59:42.907Z,101283.41
